createdAt,value
2022-08-10T00:01:54.388Z,2.84
2022-08-10T00:04:22.969Z,2.73
2022-08-10T00:06:54.491Z,2.86
2022-08-10T00:09:21.592Z,2.67
2022-08-10T00:11:47.971Z,2.83
2022-08-10T00:14:14.467Z,2.87
2022-08-10T00:16:40.904Z,2.98
2022-08-10T00:19:07.223Z,2.70
2022-08-10T00:21:33.638Z,2.64
2022-08-10T00:24:00.405Z,2.73
2022-08-10T00:26:26.776Z,2.89
2022-08-10T00:29:13.212Z,2.89
2022-08-10T00:31:58.486Z,2.85
2022-08-10T00:34:27.220Z,2.92
2022-08-10T00:36:53.721Z,2.87
2022-08-10T00:39:20.580Z,2.84
2022-08-10T00:41:47.216Z,2.60
2022-08-10T00:44:34.191Z,2.68
2022-08-10T00:47:00.607Z,2.66
2022-08-10T00:49:28.145Z,2.93
2022-08-10T00:51:55.139Z,3.26
2022-08-10T00:54:24.081Z,2.97
2022-08-10T00:57:15.696Z,2.98
2022-08-10T00:59:58.207Z,3.05
2022-08-10T01:02:25.576Z,2.89
2022-08-10T01:05:00.918Z,3.16
2022-08-10T01:08:00.572Z,2.93
2022-08-10T01:10:35.845Z,2.88
2022-08-10T01:13:17.478Z,2.94
2022-08-10T01:15:52.848Z,2.75
2022-08-10T01:19:05.595Z,2.92
2022-08-10T01:21:57.410Z,2.82
2022-08-10T01:24:51.498Z,2.89
2022-08-10T01:27:28.655Z,2.89
2022-08-10T01:30:01.483Z,2.91
2022-08-10T01:32:33.181Z,2.94
2022-08-10T01:35:13.032Z,3.11
2022-08-10T01:37:52.073Z,2.80
2022-08-10T01:40:23.594Z,2.96
2022-08-10T01:42:52.578Z,2.93
2022-08-10T01:45:24.342Z,3.26
2022-08-10T01:47:55.869Z,2.86
2022-08-10T01:50:28.541Z,2.85
2022-08-10T01:53:02.659Z,2.92
2022-08-10T01:55:31.946Z,2.99
2022-08-10T01:58:04.098Z,3.00
2022-08-10T02:00:35.177Z,2.85
2022-08-10T02:03:07.562Z,2.90
2022-08-10T02:05:39.157Z,2.96
2022-08-10T02:08:11.597Z,2.97
2022-08-10T02:10:42.055Z,3.04
2022-08-10T02:13:10.376Z,2.94
2022-08-10T02:16:01.893Z,2.81
2022-08-10T02:18:30.225Z,2.96
2022-08-10T02:21:02.797Z,3.28
2022-08-10T02:23:32.875Z,3.16
2022-08-10T02:26:03.049Z,3.04
2022-08-10T02:28:33.602Z,2.94
2022-08-10T02:31:06.907Z,3.03
2022-08-10T02:33:38.322Z,3.02
2022-08-10T02:36:07.560Z,3.02
2022-08-10T02:38:58.251Z,3.08
2022-08-10T02:45:01.159Z,3.22
2022-08-10T02:45:24.537Z,3.03
2022-08-10T02:47:51.105Z,3.03
2022-08-10T02:50:35.233Z,2.88
2022-08-10T02:53:06.198Z,3.06
2022-08-10T02:55:54.209Z,2.96
2022-08-10T02:58:29.552Z,3.08
2022-08-10T03:00:59.744Z,3.10
2022-08-10T03:03:32.779Z,3.06
2022-08-10T03:06:13.750Z,2.92
2022-08-10T03:08:43.678Z,2.91
2022-08-10T03:11:17.905Z,2.99
2022-08-10T03:14:08.027Z,2.88
2022-08-10T03:16:36.465Z,2.84
2022-08-10T03:19:07.807Z,3.04
2022-08-10T03:21:55.744Z,3.06
2022-08-10T03:24:30.101Z,3.16
2022-08-10T03:27:00.349Z,3.18
2022-08-10T03:29:29.014Z,3.10
2022-08-10T03:31:56.773Z,3.11
2022-08-10T03:34:32.807Z,3.15
2022-08-10T03:37:00.599Z,3.25
2022-08-10T03:39:27.640Z,3.02
2022-08-10T03:41:58.755Z,3.04
2022-08-10T03:44:29.652Z,3.12
2022-08-10T03:47:00.431Z,3.03
2022-08-10T03:49:29.628Z,3.13
2022-08-10T03:51:58.562Z,3.09
2022-08-10T03:54:26.431Z,3.21
2022-08-10T03:56:53.419Z,2.99
2022-08-10T03:59:21.354Z,3.05
2022-08-10T04:02:43.489Z,3.06
2022-08-10T04:04:37.531Z,3.00
2022-08-10T04:07:05.183Z,3.04
2022-08-10T04:09:55.730Z,3.17
2022-08-10T04:12:21.190Z,3.40
2022-08-10T04:14:56.276Z,3.14
2022-08-10T04:18:05.018Z,3.31
2022-08-10T04:20:34.450Z,3.34
2022-08-10T04:23:07.584Z,3.42
2022-08-10T04:25:36.101Z,3.23
2022-08-10T04:28:03.186Z,3.13
2022-08-10T04:30:32.346Z,3.08
2022-08-10T04:33:02.769Z,3.00
2022-08-10T04:35:31.869Z,3.19
2022-08-10T04:38:00.326Z,3.41
2022-08-10T04:40:28.959Z,3.67
2022-08-10T04:43:09.048Z,3.31
2022-08-10T04:45:50.239Z,3.37
2022-08-10T04:48:43.065Z,3.70
2022-08-10T04:51:18.160Z,3.70
2022-08-10T04:54:04.481Z,3.33
2022-08-10T04:56:35.878Z,3.39
2022-08-10T04:59:02.888Z,3.28
2022-08-10T05:02:28.332Z,3.56
2022-08-10T05:04:37.518Z,3.63
2022-08-10T05:07:02.177Z,3.54
2022-08-10T05:09:28.494Z,3.53
2022-08-10T05:11:54.776Z,3.51
2022-08-10T05:14:21.102Z,3.69
2022-08-10T05:16:47.544Z,3.55
2022-08-10T05:19:13.870Z,3.60
2022-08-10T05:22:01.440Z,3.73
2022-08-10T05:24:26.598Z,3.64
2022-08-10T05:27:00.309Z,3.63
2022-08-10T05:29:36.157Z,3.67
2022-08-10T05:32:02.737Z,3.66
2022-08-10T05:34:29.106Z,3.72
2022-08-10T05:36:55.834Z,3.55
2022-08-10T05:39:30.253Z,3.88
2022-08-10T05:42:01.303Z,4.06
2022-08-10T05:44:29.152Z,4.15
2022-08-10T05:46:55.747Z,3.88
2022-08-10T05:49:22.241Z,3.77
2022-08-10T05:51:48.914Z,3.87
2022-08-10T05:54:15.877Z,3.77
2022-08-10T05:56:53.978Z,3.53
2022-08-10T06:00:32.419Z,3.82
2022-08-10T06:02:35.003Z,3.89
2022-08-10T06:05:26.786Z,3.64
2022-08-10T06:08:15.770Z,3.72
2022-08-10T06:12:24.407Z,3.59
2022-08-10T06:13:59.714Z,3.52
2022-08-10T06:16:24.563Z,3.72
2022-08-10T06:18:52.926Z,3.75
2022-08-10T06:21:19.863Z,3.87
2022-08-10T06:23:48.441Z,3.72
2022-08-10T06:26:21.367Z,3.97
2022-08-10T06:29:03.851Z,4.04
2022-08-10T06:31:48.602Z,4.10
2022-08-10T06:34:22.594Z,3.81
2022-08-10T06:36:50.646Z,3.66
2022-08-10T06:39:32.798Z,3.84
2022-08-10T06:42:16.766Z,3.62
2022-08-10T06:44:54.223Z,3.69
2022-08-10T06:47:25.411Z,3.72
2022-08-10T06:49:59.783Z,4.01
2022-08-10T06:52:30.450Z,4.92
2022-08-10T06:55:00.379Z,4.75
2022-08-10T06:57:32.313Z,4.14
2022-08-10T07:00:02.791Z,4.10
2022-08-10T07:02:50.408Z,3.93
2022-08-10T07:05:24.394Z,4.00
2022-08-10T07:07:55.605Z,3.69
2022-08-10T07:10:25.057Z,3.94
2022-08-10T07:13:09.459Z,3.66
2022-08-10T07:15:59.331Z,3.81
2022-08-10T07:18:26.672Z,3.97
2022-08-10T07:20:58.731Z,3.81
2022-08-10T07:23:57.781Z,3.82
2022-08-10T07:26:15.038Z,3.98
2022-08-10T07:28:47.549Z,3.99
2022-08-10T07:31:54.763Z,3.74
2022-08-10T07:34:08.735Z,3.82
2022-08-10T07:36:42.624Z,4.02
2022-08-10T07:39:12.411Z,3.75
2022-08-10T07:41:47.701Z,3.92
2022-08-10T07:44:15.571Z,4.09
2022-08-10T07:46:46.991Z,3.88
2022-08-10T07:49:27.966Z,4.01
2022-08-10T07:51:56.178Z,4.32
2022-08-10T07:54:29.081Z,4.47
2022-08-10T07:57:01.299Z,4.19
2022-08-10T07:59:41.759Z,4.28
2022-08-10T08:02:18.556Z,4.09
2022-08-10T08:04:47.998Z,4.05
2022-08-10T08:07:18.374Z,3.79
2022-08-10T08:09:57.626Z,3.96
2022-08-10T08:12:28.122Z,3.91
2022-08-10T08:14:58.735Z,3.93
2022-08-10T08:17:35.784Z,3.98
2022-08-10T08:20:04.129Z,3.90
2022-08-10T08:24:04.354Z,3.93
2022-08-10T08:25:24.288Z,3.98
2022-08-10T08:27:52.395Z,4.17
2022-08-10T08:30:27.686Z,4.24
2022-08-10T08:32:56.799Z,4.06
2022-08-10T08:35:26.364Z,4.15
2022-08-10T08:38:31.224Z,3.99
2022-08-10T08:40:47.791Z,4.29
2022-08-10T08:43:37.424Z,4.09
2022-08-10T08:46:44.351Z,4.72
2022-08-10T08:50:07.868Z,4.12
2022-08-10T08:52:53.834Z,4.20
2022-08-10T08:56:03.669Z,4.02
2022-08-10T08:58:50.375Z,3.88
2022-08-10T09:01:40.555Z,4.00
2022-08-10T09:04:22.557Z,4.28
2022-08-10T09:06:51.780Z,4.23
2022-08-10T09:09:42.832Z,3.94
2022-08-10T09:13:06.090Z,4.32
2022-08-10T09:16:00.870Z,4.37
2022-08-10T09:19:04.461Z,4.48
2022-08-10T09:21:58.635Z,4.01
2022-08-10T09:24:48.003Z,4.37
2022-08-10T09:27:26.310Z,4.19
2022-08-10T09:30:02.060Z,4.12
2022-08-10T09:36:14.638Z,4.11
2022-08-10T09:36:19.322Z,4.11
2022-08-10T09:38:51.207Z,4.10
2022-08-10T09:41:33.104Z,4.36
2022-08-10T09:44:13.000Z,4.33
2022-08-10T09:46:58.847Z,4.39
2022-08-10T09:49:54.912Z,4.41
2022-08-10T09:52:48.583Z,4.41
2022-08-10T09:56:17.382Z,4.12
2022-08-10T09:58:40.160Z,4.38
2022-08-10T10:02:02.399Z,4.47
2022-08-10T10:04:36.939Z,4.55
2022-08-10T10:07:06.783Z,4.73
2022-08-10T10:09:42.713Z,4.44
2022-08-10T10:12:25.143Z,4.36
2022-08-10T10:15:25.079Z,4.27
2022-08-10T10:18:04.325Z,4.09
2022-08-10T10:20:58.790Z,4.25
2022-08-10T10:24:19.877Z,4.51
2022-08-10T10:26:52.307Z,4.23
2022-08-10T10:29:58.317Z,4.32
2022-08-10T10:32:41.024Z,4.32
2022-08-10T10:35:45.012Z,4.72
2022-08-10T10:38:13.637Z,4.61
2022-08-10T10:41:19.210Z,4.91
2022-08-10T10:44:09.975Z,4.47
2022-08-10T10:47:05.132Z,5.18
2022-08-10T10:49:40.666Z,4.99
2022-08-10T10:52:42.706Z,4.73
2022-08-10T10:55:15.470Z,4.51
2022-08-10T10:58:01.486Z,4.40
2022-08-10T11:00:54.300Z,4.72
2022-08-10T11:03:33.964Z,4.57
2022-08-10T11:06:18.593Z,5.08
2022-08-10T11:08:53.983Z,5.60
2022-08-10T11:12:00.593Z,4.50
2022-08-10T11:14:41.106Z,4.47
2022-08-10T11:17:21.166Z,4.88
2022-08-10T11:20:12.738Z,4.55
2022-08-10T11:23:02.661Z,4.74
2022-08-10T11:25:32.712Z,4.73
2022-08-10T11:28:19.940Z,4.69
2022-08-10T11:30:49.284Z,4.53
2022-08-10T11:34:04.108Z,4.80
2022-08-10T11:36:46.896Z,4.75
2022-08-10T11:39:29.724Z,5.02
2022-08-10T11:42:26.648Z,4.59
2022-08-10T11:45:11.926Z,4.85
2022-08-10T11:47:50.918Z,4.88
2022-08-10T11:50:29.434Z,4.82
2022-08-10T11:53:15.400Z,4.81
2022-08-10T11:55:46.761Z,4.55
2022-08-10T11:58:15.040Z,4.38
2022-08-10T12:00:41.764Z,4.54
2022-08-10T12:03:09.476Z,4.56
2022-08-10T12:05:48.339Z,4.49
2022-08-10T12:10:04.616Z,4.38
2022-08-10T12:11:24.115Z,4.32
2022-08-10T12:14:22.486Z,4.43
2022-08-10T12:16:59.202Z,4.65
2022-08-10T12:20:02.148Z,4.34
2022-08-10T12:22:52.829Z,4.65
2022-08-10T12:25:56.463Z,4.70
2022-08-10T12:28:50.219Z,4.49
2022-08-10T12:31:24.871Z,4.39
2022-08-10T12:34:13.494Z,4.13
2022-08-10T12:36:46.726Z,4.29
2022-08-10T12:39:21.987Z,4.50
2022-08-10T12:41:59.783Z,4.51
2022-08-10T12:44:42.006Z,4.19
2022-08-10T12:47:37.193Z,4.77
2022-08-10T12:53:57.402Z,4.48
2022-08-10T12:56:27.340Z,4.48
2022-08-10T12:58:57.397Z,4.31
2022-08-10T13:02:06.774Z,4.41
2022-08-10T13:04:27.142Z,4.10
2022-08-10T13:06:54.912Z,3.95
2022-08-10T13:09:24.045Z,4.33
2022-08-10T13:12:38.712Z,4.38
2022-08-10T13:15:03.741Z,4.18
2022-08-10T13:17:53.949Z,4.26
2022-08-10T13:20:30.603Z,4.25
2022-08-10T13:23:01.279Z,4.40
2022-08-10T13:25:43.275Z,4.20
2022-08-10T13:28:36.229Z,4.21
2022-08-10T13:31:05.348Z,4.07
2022-08-10T13:34:39.342Z,3.74
2022-08-10T13:36:25.988Z,4.03
2022-08-10T13:38:56.546Z,4.12
2022-08-10T13:41:39.476Z,3.85
2022-08-10T13:44:11.186Z,3.62
2022-08-10T13:46:39.647Z,3.47
2022-08-10T13:49:09.338Z,3.58
2022-08-10T13:51:54.060Z,3.64
2022-08-10T13:54:38.763Z,3.86
2022-08-10T13:57:07.104Z,3.58
2022-08-10T14:00:35.613Z,3.53
2022-08-10T14:02:35.960Z,3.52
2022-08-10T14:05:04.915Z,3.38
2022-08-10T14:07:32.471Z,3.51
2022-08-10T14:10:04.454Z,3.30
2022-08-10T14:12:33.644Z,3.38
2022-08-10T14:15:05.313Z,3.49
2022-08-10T14:17:34.956Z,3.54
2022-08-10T14:20:08.103Z,2.88
2022-08-10T14:22:39.048Z,2.98
2022-08-10T14:25:14.629Z,2.89
2022-08-10T14:28:02.368Z,2.96
2022-08-10T14:30:33.598Z,2.94
2022-08-10T14:33:02.371Z,2.73
2022-08-10T14:36:19.104Z,2.82
2022-08-10T14:38:22.352Z,3.06
2022-08-10T14:40:54.642Z,3.04
2022-08-10T14:43:39.432Z,3.03
2022-08-10T14:46:11.110Z,3.08
2022-08-10T14:48:46.079Z,2.82
2022-08-10T14:51:18.194Z,2.90
2022-08-10T14:53:53.686Z,2.79
2022-08-10T14:56:32.184Z,2.94
2022-08-10T14:59:06.711Z,3.08
2022-08-10T15:02:39.014Z,2.99
2022-08-10T15:04:29.265Z,2.87
2022-08-10T15:07:12.348Z,2.65
2022-08-10T15:10:00.167Z,2.79
2022-08-10T15:12:38.805Z,2.92
2022-08-10T15:15:18.030Z,3.11
2022-08-10T15:17:54.418Z,2.64
2022-08-10T15:20:27.027Z,2.71
2022-08-10T15:23:03.061Z,2.91
2022-08-10T15:25:30.977Z,3.08
2022-08-10T15:28:06.660Z,3.03
2022-08-10T15:30:38.952Z,2.62
2022-08-10T15:33:07.603Z,2.69
2022-08-10T15:35:37.812Z,2.88
2022-08-10T15:38:07.853Z,2.84
2022-08-10T15:40:45.057Z,2.86
2022-08-10T15:43:24.431Z,2.58
2022-08-10T15:46:00.793Z,2.54
2022-08-10T15:48:32.803Z,2.86
2022-08-10T15:51:10.245Z,3.23
2022-08-10T15:53:49.884Z,3.03
2022-08-10T15:56:42.157Z,2.93
2022-08-10T15:59:32.413Z,2.98
2022-08-10T16:02:16.667Z,2.73
2022-08-10T16:04:55.306Z,3.00
2022-08-10T16:07:49.099Z,2.94
2022-08-10T16:10:26.186Z,2.79
2022-08-10T16:13:50.346Z,2.71
2022-08-10T16:15:58.830Z,2.76
2022-08-10T16:18:28.676Z,2.80
2022-08-10T16:20:59.699Z,3.22
2022-08-10T16:23:30.902Z,2.98
2022-08-10T16:26:14.878Z,3.09
2022-08-10T16:28:55.681Z,3.04
2022-08-10T16:31:29.140Z,3.13
2022-08-10T16:33:59.190Z,2.99
2022-08-10T16:36:37.101Z,3.00
2022-08-10T16:39:06.091Z,2.90
2022-08-10T16:42:03.232Z,2.76
2022-08-10T16:44:36.523Z,3.07
2022-08-10T16:47:04.289Z,2.99
2022-08-10T16:49:37.943Z,2.80
2022-08-10T16:52:07.061Z,2.81
2022-08-10T16:54:37.235Z,2.95
2022-08-10T16:57:11.106Z,2.90
2022-08-10T16:59:40.345Z,2.99
2022-08-10T17:02:13.998Z,3.00
2022-08-10T17:04:43.769Z,2.87
2022-08-10T17:07:15.848Z,2.99
2022-08-10T17:09:49.194Z,2.87
2022-08-10T17:12:23.254Z,3.02
2022-08-10T17:15:09.365Z,3.30
2022-08-10T17:17:46.318Z,3.06
2022-08-10T17:20:30.018Z,2.82
2022-08-10T17:23:04.632Z,3.15
2022-08-10T17:25:45.925Z,3.09
2022-08-10T17:28:32.687Z,3.06
2022-08-10T17:31:39.693Z,3.13
2022-08-10T17:34:02.144Z,3.01
2022-08-10T17:36:35.144Z,2.95
2022-08-10T17:39:03.206Z,2.98
2022-08-10T17:41:33.752Z,2.87
2022-08-10T17:44:04.501Z,2.94
2022-08-10T17:46:37.035Z,3.20
2022-08-10T17:49:08.621Z,3.18
2022-08-10T17:51:38.185Z,3.09
2022-08-10T17:54:14.097Z,2.99
2022-08-10T17:56:41.672Z,2.98
2022-08-10T17:59:16.836Z,3.14
2022-08-10T18:02:01.349Z,2.89
2022-08-10T18:04:41.248Z,2.96
2022-08-10T18:07:10.365Z,2.83
2022-08-10T18:09:52.983Z,3.00
2022-08-10T18:12:39.247Z,2.95
2022-08-10T18:15:13.736Z,3.06
2022-08-10T18:17:45.904Z,3.00
2022-08-10T18:20:16.218Z,3.24
2022-08-10T18:22:50.528Z,3.23
2022-08-10T18:25:20.628Z,3.17
2022-08-10T18:28:01.431Z,3.23
2022-08-10T18:30:36.442Z,3.29
2022-08-10T18:33:08.331Z,3.13
2022-08-10T18:35:35.746Z,3.35
2022-08-10T18:38:04.659Z,3.51
2022-08-10T18:40:35.475Z,3.28
2022-08-10T18:44:08.388Z,3.23
2022-08-10T18:45:58.871Z,3.24
2022-08-10T18:48:37.123Z,3.11
2022-08-10T18:51:06.624Z,3.20
2022-08-10T18:53:37.240Z,3.19
2022-08-10T18:56:28.365Z,3.18
2022-08-10T18:59:42.374Z,3.31
2022-08-10T19:03:04.693Z,3.30
2022-08-10T19:05:54.015Z,3.14
2022-08-10T19:08:49.145Z,3.26
2022-08-10T19:11:44.213Z,3.04
2022-08-10T19:14:20.382Z,3.06
2022-08-10T19:17:09.899Z,3.26
2022-08-10T19:19:44.139Z,3.38
2022-08-10T19:22:20.732Z,3.16
2022-08-10T19:24:59.383Z,3.38
2022-08-10T19:27:34.563Z,3.32
2022-08-10T19:30:13.485Z,3.22
2022-08-10T19:33:07.714Z,3.29
2022-08-10T19:36:06.361Z,3.28
2022-08-10T19:38:50.901Z,3.43
2022-08-10T19:41:32.458Z,3.26
2022-08-10T19:44:14.276Z,3.40
2022-08-10T19:46:53.788Z,3.11
2022-08-10T19:50:10.952Z,3.29
2022-08-10T19:53:04.499Z,3.11
2022-08-10T19:55:37.763Z,3.35
2022-08-10T19:58:16.824Z,3.66
2022-08-10T20:00:58.163Z,3.07
2022-08-10T20:03:50.673Z,3.28
2022-08-10T20:06:21.818Z,3.22
2022-08-10T20:09:12.301Z,3.21
2022-08-10T20:11:57.312Z,3.37
2022-08-10T20:14:33.673Z,3.07
2022-08-10T20:17:09.144Z,3.08
2022-08-10T20:19:59.317Z,3.32
2022-08-10T20:22:37.012Z,2.97
2022-08-10T20:25:17.745Z,3.09
2022-08-10T20:27:59.819Z,3.24
2022-08-10T20:30:32.617Z,2.91
2022-08-10T20:33:04.661Z,3.19
2022-08-10T20:35:43.725Z,2.84
2022-08-10T20:38:20.486Z,3.01
2022-08-10T20:41:13.626Z,3.02
2022-08-10T20:44:04.743Z,3.11
2022-08-10T20:46:59.074Z,3.23
2022-08-10T20:50:07.502Z,3.10
2022-08-10T20:52:36.003Z,3.06
2022-08-10T20:55:08.464Z,3.00
2022-08-10T20:58:01.454Z,2.95
2022-08-10T21:00:48.165Z,2.97
2022-08-10T21:03:58.709Z,3.12
2022-08-10T21:06:44.975Z,2.93
2022-08-10T21:09:39.468Z,2.94
2022-08-10T21:12:44.763Z,3.18
2022-08-10T21:15:49.595Z,2.95
2022-08-10T21:18:43.927Z,3.22
2022-08-10T21:21:59.019Z,3.14
2022-08-10T21:24:37.521Z,3.17
2022-08-10T21:27:36.629Z,3.17
2022-08-10T21:30:09.578Z,3.21
2022-08-10T21:32:48.092Z,3.05
2022-08-10T21:35:37.468Z,3.10
2022-08-10T21:38:24.209Z,2.97
2022-08-10T21:41:17.419Z,3.12
2022-08-10T21:44:25.396Z,2.89
2022-08-10T21:47:31.073Z,3.17
2022-08-10T21:50:10.610Z,3.26
2022-08-10T21:52:53.470Z,3.20
2022-08-10T21:55:57.595Z,2.99
2022-08-10T21:58:33.718Z,2.93
2022-08-10T22:01:09.718Z,2.94
2022-08-10T22:03:40.931Z,3.10
2022-08-10T22:06:10.506Z,2.95
2022-08-10T22:08:44.626Z,2.96
2022-08-10T22:11:20.181Z,2.91
2022-08-10T22:13:49.920Z,2.83
2022-08-10T22:16:41.327Z,3.06
2022-08-10T22:19:14.932Z,2.98
2022-08-10T22:22:06.939Z,2.86
2022-08-10T22:25:17.067Z,4.44
2022-08-10T22:27:50.224Z,3.17
2022-08-10T22:30:23.132Z,2.96
2022-08-10T22:33:13.898Z,3.04
2022-08-10T22:36:12.392Z,2.85
2022-08-10T22:39:07.707Z,2.90
2022-08-10T22:41:40.107Z,3.02
2022-08-10T22:44:12.229Z,3.06
2022-08-10T22:46:43.018Z,2.74
2022-08-10T22:49:10.265Z,2.73
2022-08-10T22:51:55.557Z,2.67
2022-08-10T22:54:38.412Z,3.06
2022-08-10T22:57:06.206Z,3.08
2022-08-10T22:59:33.346Z,2.98
2022-08-10T23:02:09.563Z,2.67
2022-08-10T23:04:52.222Z,2.80
2022-08-10T23:07:35.357Z,2.93
2022-08-10T23:10:08.043Z,2.71
2022-08-10T23:12:47.762Z,2.65
2022-08-10T23:15:24.826Z,3.01
2022-08-10T23:18:01.737Z,2.62
2022-08-10T23:20:31.477Z,2.61
2022-08-10T23:23:07.379Z,2.87
2022-08-10T23:25:56.990Z,2.78
2022-08-10T23:28:38.287Z,2.81
2022-08-10T23:31:12.055Z,2.59
2022-08-10T23:33:40.694Z,2.63
2022-08-10T23:36:34.268Z,2.79
2022-08-10T23:39:25.941Z,2.75
2022-08-10T23:41:56.963Z,2.69
2022-08-10T23:44:25.266Z,2.75
2022-08-10T23:46:53.191Z,2.64
2022-08-10T23:49:21.388Z,2.82
2022-08-10T23:51:55.904Z,2.70
2022-08-10T23:54:26.177Z,2.87
2022-08-10T23:57:01.356Z,2.81
2022-08-10T23:59:30.715Z,2.88
